Time;durP1;ratioP1;P1;durP2;ratioP2;P2;SDS_P1;SDS_P2;PMS_P1;PMS_P2;Temp;Humidity;BMP_temperature;BMP_pressure;BME280_temperature;BME280_humidity;BME280_pressure;Samples;Min_cycle;Max_cycle;Signal;HPM_P1;HPM_P2
2022/09/29 00:02:16;;;;;;;4.80;2.80;;;7.60;99.90;;;;;;5128001;27;20619;-73
2022/09/29 00:04:42;;;;;;;4.68;3.13;;;7.60;99.90;;;;;;5127478;27;20403;-73
2022/09/29 00:07:07;;;;;;;3.83;2.90;;;7.60;99.90;;;;;;5128290;27;20430;-73
2022/09/29 00:09:33;;;;;;;4.05;2.97;;;7.60;99.90;;;;;;5127431;27;20536;-73
2022/09/29 00:11:59;;;;;;;3.75;2.92;;;7.60;99.90;;;;;;5127784;27;20411;-74
2022/09/29 00:14:25;;;;;;;4.03;2.92;;;7.60;99.90;;;;;;5128378;27;20421;-73
2022/09/29 00:16:51;;;;;;;4.37;3.07;;;7.60;99.90;;;;;;5118149;27;20392;-73
2022/09/29 00:19:18;;;;;;;4.28;3.13;;;7.60;99.90;;;;;;5108194;28;20615;-74
2022/09/29 00:21:44;;;;;;;3.45;2.63;;;7.60;99.90;;;;;;5108025;28;20484;-74
2022/09/29 00:24:10;;;;;;;2.80;2.22;;;7.60;99.90;;;;;;5111897;28;20566;-74
2022/09/29 00:26:35;;;;;;;3.35;2.80;;;7.50;99.90;;;;;;5117507;27;20427;-74
2022/09/29 00:29:01;;;;;;;4.23;2.67;;;7.50;99.90;;;;;;5106840;28;20400;-73
2022/09/29 00:31:32;;;;;;;4.38;2.38;;;7.50;99.90;;;;;;5107413;28;20877;-73
2022/09/29 00:33:58;;;;;;;5.63;2.80;;;7.50;99.90;;;;;;5121696;27;20781;-73
2022/09/29 00:36:29;;;;;;;4.18;2.47;;;7.50;99.90;;;;;;5108015;28;20789;-73
2022/09/29 00:38:55;;;;;;;3.40;2.33;;;7.50;99.90;;;;;;5108467;28;20403;-74
2022/09/29 00:41:30;;;;;;;3.75;2.55;;;7.50;99.90;;;;;;5107994;28;20396;-73
2022/09/29 00:44:02;;;;;;;4.32;2.90;;;7.50;99.90;;;;;;5094552;28;20406;-74
2022/09/29 00:46:39;;;;;;;5.95;2.65;;;7.40;99.90;;;;;;5108006;28;20416;-73
2022/09/29 00:49:36;;;;;;;5.47;2.92;;;7.40;99.90;;;;;;5115929;28;20406;-74
2022/09/29 00:52:25;;;;;;;4.10;2.47;;;7.40;99.90;;;;;;5108319;27;20821;-73
2022/09/29 00:55:03;;;;;;;3.73;2.67;;;7.40;99.90;;;;;;5108592;27;20933;-73
2022/09/29 00:57:37;;;;;;;4.03;2.78;;;7.40;99.90;;;;;;5117663;27;20451;-74
2022/09/29 01:00:08;;;;;;;4.32;3.08;;;7.40;99.90;;;;;;5107522;28;20392;-73
2022/09/29 01:02:40;;;;;;;5.03;2.72;;;7.40;99.90;;;;;;5107733;28;20457;-73
2022/09/29 01:05:11;;;;;;;4.63;3.10;;;7.40;99.90;;;;;;5113955;27;20398;-74
2022/09/29 01:07:38;;;;;;;3.80;2.83;;;7.30;99.90;;;;;;5114187;27;20400;-74
2022/09/29 01:10:05;;;;;;;3.80;2.95;;;7.30;99.90;;;;;;5107714;28;20921;-73
2022/09/29 01:12:31;;;;;;;4.40;3.10;;;7.30;99.90;;;;;;5108288;28;20906;-74
2022/09/29 01:14:58;;;;;;;4.93;3.05;;;7.40;99.90;;;;;;5109968;28;20460;-74
2022/09/29 01:17:24;;;;;;;4.78;2.90;;;7.40;99.90;;;;;;5112468;27;20407;-73
2022/09/29 01:20:02;;;;;;;3.88;2.83;;;7.30;99.90;;;;;;5111263;27;20400;-73
2022/09/29 01:22:38;;;;;;;4.67;2.83;;;7.30;99.90;;;;;;5111728;27;20447;-74
2022/09/29 01:25:29;;;;;;;3.95;3.00;;;7.20;99.90;;;;;;5110630;27;20404;-74
2022/09/29 01:28:01;;;;;;;3.97;2.85;;;7.20;99.90;;;;;;5111578;27;20755;-73
2022/09/29 01:30:53;;;;;;;4.03;3.00;;;7.20;99.90;;;;;;5112925;27;20403;-73
2022/09/29 01:33:30;;;;;;;5.15;3.20;;;7.20;99.90;;;;;;5110785;28;20412;-73
2022/09/29 01:36:13;;;;;;;4.25;3.03;;;7.20;99.90;;;;;;5109739;28;20419;-74
2022/09/29 01:39:00;;;;;;;4.30;2.90;;;7.20;99.90;;;;;;5111276;28;20404;-74
2022/09/29 01:41:35;;;;;;;4.47;3.15;;;7.20;99.90;;;;;;5111374;27;20890;-73
2022/09/29 01:44:21;;;;;;;4.80;3.25;;;7.20;99.90;;;;;;5114952;27;20481;-73
2022/09/29 01:46:52;;;;;;;4.07;3.10;;;7.10;99.90;;;;;;5118491;27;20422;-73
2022/09/29 01:49:20;;;;;;;4.78;3.40;;;7.10;99.90;;;;;;5098789;28;20477;-73
2022/09/29 01:51:50;;;;;;;5.47;3.73;;;7.10;99.90;;;;;;5119285;27;20423;-73
2022/09/29 01:54:23;;;;;;;4.60;3.35;;;7.10;99.90;;;;;;5093769;27;20479;-74
2022/09/29 01:56:58;;;;;;;4.22;3.15;;;7.00;99.90;;;;;;5130795;27;20411;-73
2022/09/29 01:59:46;;;;;;;4.78;3.50;;;7.00;99.90;;;;;;5130433;27;20900;-73
2022/09/29 02:02:29;;;;;;;4.82;3.50;;;7.00;99.90;;;;;;5109153;27;20402;-74
2022/09/29 02:05:00;;;;;;;5.18;3.40;;;7.00;99.90;;;;;;5112410;27;20405;-73
2022/09/29 02:07:33;;;;;;;5.72;3.53;;;7.00;99.90;;;;;;5110846;27;20474;-74
2022/09/29 02:10:12;;;;;;;5.30;4.07;;;7.00;99.90;;;;;;5110572;27;20823;-73
2022/09/29 02:12:40;;;;;;;5.72;4.32;;;6.90;99.90;;;;;;5110451;27;20412;-73
2022/09/29 02:15:10;;;;;;;9.02;4.60;;;6.90;99.90;;;;;;5109894;27;20408;-73
2022/09/29 02:17:40;;;;;;;6.63;4.53;;;6.90;99.90;;;;;;5111413;27;20404;-73
2022/09/29 02:20:06;;;;;;;6.53;4.45;;;6.90;99.90;;;;;;5126065;27;20761;-74
2022/09/29 02:22:34;;;;;;;6.07;4.20;;;6.90;99.90;;;;;;5124539;27;20761;-74
2022/09/29 02:25:00;;;;;;;6.45;4.30;;;6.80;99.90;;;;;;5109264;28;20545;-73
2022/09/29 02:27:32;;;;;;;6.23;4.80;;;6.80;99.90;;;;;;5109164;28;20427;-74
2022/09/29 02:29:58;;;;;;;8.40;5.03;;;6.80;99.90;;;;;;5097551;28;20476;-73
2022/09/29 02:32:25;;;;;;;5.75;4.53;;;6.80;99.90;;;;;;5110015;28;20464;-73
2022/09/29 02:34:51;;;;;;;5.83;4.57;;;6.80;99.90;;;;;;5122015;27;20487;-73
2022/09/29 02:37:20;;;;;;;8.52;4.68;;;6.80;99.90;;;;;;5129734;27;20409;-74
2022/09/29 02:40:11;;;;;;;5.53;4.50;;;6.80;99.90;;;;;;5119309;27;20411;-73
2022/09/29 02:42:45;;;;;;;6.15;4.45;;;6.80;99.90;;;;;;5127902;27;20477;-73
2022/09/29 02:45:14;;;;;;;7.90;4.57;;;6.70;99.90;;;;;;5128797;27;20399;-74
2022/09/29 02:48:07;;;;;;;7.20;4.43;;;6.70;99.90;;;;;;5129516;27;20897;-73
2022/09/29 02:50:47;;;;;;;6.20;4.13;;;6.70;99.90;;;;;;5128367;27;20399;-73
2022/09/29 02:53:25;;;;;;;20.03;4.73;;;6.70;99.90;;;;;;5128757;27;20411;-73
2022/09/29 02:56:12;;;;;;;16.35;5.18;;;6.70;99.90;;;;;;5104627;27;20402;-73
2022/09/29 02:58:45;;;;;;;15.65;4.97;;;6.70;99.90;;;;;;5120165;27;20917;-74
2022/09/29 03:01:14;;;;;;;27.05;5.70;;;6.70;99.90;;;;;;5123056;27;20497;-73
2022/09/29 03:03:39;;;;;;;19.67;5.47;;;6.60;99.90;;;;;;5108466;28;20399;-73
2022/09/29 03:06:05;;;;;;;15.60;4.65;;;6.70;99.90;;;;;;5109174;28;20428;-73
2022/09/29 03:08:32;;;;;;;21.70;5.07;;;6.70;99.90;;;;;;5121713;27;20451;-73
2022/09/29 03:10:58;;;;;;;25.70;5.18;;;6.70;99.90;;;;;;5129028;27;20413;-73
2022/09/29 03:13:24;;;;;;;16.88;4.65;;;6.70;99.90;;;;;;5116064;27;20765;-73
2022/09/29 03:15:49;;;;;;;19.95;4.78;;;6.70;99.90;;;;;;5109123;28;20400;-73
2022/09/29 03:18:15;;;;;;;8.33;4.27;;;6.60;99.90;;;;;;5109768;28;20389;-73
2022/09/29 03:20:40;;;;;;;9.05;4.30;;;6.60;99.90;;;;;;5115608;28;20404;-74
2022/09/29 03:23:06;;;;;;;7.97;4.33;;;6.60;99.90;;;;;;5120264;28;20404;-73
2022/09/29 03:25:32;;;;;;;11.73;5.05;;;6.60;99.90;;;;;;5130290;27;20534;-73
2022/09/29 03:27:57;;;;;;;7.93;4.90;;;6.60;99.90;;;;;;5129335;27;20387;-74
2022/09/29 03:30:23;;;;;;;14.38;4.82;;;6.50;99.90;;;;;;5110904;27;20446;-74
2022/09/29 03:32:49;;;;;;;9.20;4.70;;;6.60;99.90;;;;;;5118081;27;20463;-73
2022/09/29 03:35:14;;;;;;;16.77;5.00;;;6.60;99.90;;;;;;5114721;27;20483;-73
2022/09/29 03:37:40;;;;;;;13.82;5.00;;;6.60;99.90;;;;;;5108776;28;20396;-74
2022/09/29 03:40:06;;;;;;;13.53;5.70;;;6.60;99.90;;;;;;5127581;27;20395;-74
2022/09/29 03:42:32;;;;;;;10.57;5.23;;;6.50;99.90;;;;;;5128767;27;20768;-74
2022/09/29 03:44:58;;;;;;;9.23;4.80;;;6.50;99.90;;;;;;5129353;27;20410;-74
2022/09/29 03:47:23;;;;;;;12.00;5.23;;;6.50;99.90;;;;;;5129191;27;20418;-74
2022/09/29 03:49:49;;;;;;;14.00;5.93;;;6.50;99.90;;;;;;5128356;27;20387;-73
2022/09/29 03:52:15;;;;;;;12.40;5.47;;;6.50;99.90;;;;;;5128040;27;20426;-73
2022/09/29 03:54:40;;;;;;;21.98;5.93;;;6.50;99.90;;;;;;5128643;27;20399;-73
2022/09/29 03:57:06;;;;;;;17.70;5.83;;;6.50;99.90;;;;;;5135699;27;20412;-73
2022/09/29 03:59:32;;;;;;;24.27;5.95;;;6.50;99.90;;;;;;5124816;27;20399;-74
2022/09/29 04:01:57;;;;;;;31.00;6.23;;;6.50;99.90;;;;;;5138823;27;20397;-73
2022/09/29 04:04:23;;;;;;;18.98;5.93;;;6.50;99.90;;;;;;5137081;27;20921;-73
2022/09/29 04:06:49;;;;;;;23.57;6.10;;;6.50;99.90;;;;;;5128322;27;20459;-73
2022/09/29 04:09:14;;;;;;;26.77;6.07;;;6.50;99.90;;;;;;5125787;27;21404;-75
2022/09/29 04:11:40;;;;;;;17.80;5.97;;;6.50;99.90;;;;;;5108843;28;20408;-74
2022/09/29 04:14:05;;;;;;;21.30;6.30;;;6.40;99.90;;;;;;5113534;27;20465;-74
2022/09/29 04:16:31;;;;;;;16.27;5.80;;;6.40;99.90;;;;;;5109014;28;20975;-74
2022/09/29 04:18:57;;;;;;;22.63;6.90;;;6.40;99.90;;;;;;5099748;28;20532;-74
2022/09/29 04:21:22;;;;;;;15.37;6.70;;;6.30;99.90;;;;;;5125898;27;20402;-74
2022/09/29 04:23:48;;;;;;;16.30;6.93;;;6.30;99.90;;;;;;5128719;27;20395;-75
2022/09/29 04:26:14;;;;;;;12.88;6.95;;;6.30;99.90;;;;;;5125347;27;20423;-73
2022/09/29 04:28:40;;;;;;;8.90;6.28;;;6.30;99.90;;;;;;5116885;27;20394;-74
2022/09/29 04:31:06;;;;;;;12.13;6.55;;;6.30;99.90;;;;;;5128068;27;20757;-74
2022/09/29 04:33:32;;;;;;;18.10;6.57;;;6.30;99.90;;;;;;5110256;27;20410;-73
2022/09/29 04:35:59;;;;;;;14.18;6.43;;;6.30;99.90;;;;;;5127522;27;20436;-74
2022/09/29 04:38:24;;;;;;;8.90;6.35;;;6.20;99.90;;;;;;5127664;27;20965;-74
2022/09/29 04:40:50;;;;;;;9.00;6.50;;;6.20;99.90;;;;;;5127499;27;20391;-74
2022/09/29 04:43:16;;;;;;;9.10;6.47;;;6.10;99.90;;;;;;5126763;27;20898;-73
2022/09/29 04:45:41;;;;;;;7.45;6.10;;;6.10;99.90;;;;;;5115559;28;20462;-74
2022/09/29 04:48:07;;;;;;;7.50;6.33;;;6.10;99.90;;;;;;5128176;27;20482;-73
2022/09/29 04:50:33;;;;;;;9.07;6.65;;;6.10;99.90;;;;;;5109840;28;20403;-74
2022/09/29 04:52:59;;;;;;;9.27;6.75;;;6.10;99.90;;;;;;5126146;27;20430;-73
2022/09/29 04:55:25;;;;;;;9.18;6.82;;;6.10;99.90;;;;;;5097477;28;20458;-74
2022/09/29 04:57:51;;;;;;;9.63;6.70;;;6.10;99.90;;;;;;5126655;27;20769;-73
2022/09/29 05:00:16;;;;;;;9.68;6.90;;;6.10;99.90;;;;;;5115781;27;20709;-74
2022/09/29 05:02:42;;;;;;;9.63;7.13;;;6.10;99.90;;;;;;5113982;27;20432;-73
2022/09/29 05:05:11;;;;;;;8.00;6.73;;;6.10;99.90;;;;;;5127774;27;20404;-73
2022/09/29 05:07:38;;;;;;;10.13;7.45;;;6.10;99.90;;;;;;5127577;27;20414;-73
2022/09/29 05:10:05;;;;;;;10.00;6.93;;;6.10;99.90;;;;;;5128180;27;20489;-73
2022/09/29 05:12:30;;;;;;;16.23;7.35;;;6.10;99.90;;;;;;5127345;27;20402;-74
2022/09/29 05:14:57;;;;;;;11.63;7.13;;;6.10;99.90;;;;;;5128082;27;20411;-73
2022/09/29 05:17:23;;;;;;;14.60;6.90;;;6.10;99.90;;;;;;5126579;27;20403;-73
2022/09/29 05:19:48;;;;;;;15.43;7.10;;;6.10;99.90;;;;;;5107428;28;20874;-73
2022/09/29 05:22:14;;;;;;;21.23;7.68;;;6.10;99.90;;;;;;5107826;28;20476;-73
2022/09/29 05:24:40;;;;;;;22.70;7.82;;;6.00;99.90;;;;;;5107063;28;20819;-74
2022/09/29 05:27:05;;;;;;;18.97;7.33;;;6.00;99.90;;;;;;5107730;28;20428;-74
2022/09/29 05:29:31;;;;;;;14.20;6.70;;;6.00;99.90;;;;;;5107845;28;20982;-74
2022/09/29 05:31:57;;;;;;;13.27;7.17;;;6.00;99.90;;;;;;5108274;28;20904;-73
2022/09/29 05:34:22;;;;;;;16.03;6.50;;;6.00;99.90;;;;;;5127142;27;20469;-73
2022/09/29 05:36:48;;;;;;;11.32;6.40;;;6.00;99.90;;;;;;5126751;27;20477;-73
2022/09/29 05:39:14;;;;;;;15.63;7.07;;;6.00;99.90;;;;;;5107835;28;20403;-74
2022/09/29 05:41:40;;;;;;;12.15;7.20;;;6.00;99.90;;;;;;5119657;27;20395;-74
2022/09/29 05:44:06;;;;;;;16.43;7.30;;;6.00;99.90;;;;;;5107645;28;20404;-73
2022/09/29 05:46:31;;;;;;;14.95;6.95;;;6.00;99.90;;;;;;5107567;28;20488;-73
2022/09/29 05:48:57;;;;;;;12.03;6.60;;;6.00;99.90;;;;;;5106727;28;20400;-74
2022/09/29 05:51:25;;;;;;;11.32;6.97;;;5.90;99.90;;;;;;5106122;28;20882;-75
2022/09/29 05:53:51;;;;;;;9.82;7.18;;;6.00;99.90;;;;;;5114661;28;20434;-75
2022/09/29 05:56:19;;;;;;;10.23;7.28;;;6.00;99.90;;;;;;5126840;27;20405;-74
2022/09/29 05:58:45;;;;;;;10.23;7.22;;;6.00;99.90;;;;;;5127433;27;20406;-75
2022/09/29 06:01:17;;;;;;;9.10;7.25;;;6.00;99.90;;;;;;5126691;27;20390;-75
2022/09/29 06:03:43;;;;;;;10.85;7.40;;;6.00;99.90;;;;;;5092206;28;20404;-74
2022/09/29 06:06:12;;;;;;;10.90;7.80;;;6.00;99.90;;;;;;5126624;27;20419;-74
2022/09/29 06:08:39;;;;;;;11.00;7.50;;;6.00;99.90;;;;;;5131284;27;20542;-75
2022/09/29 06:11:12;;;;;;;9.02;7.00;;;6.10;99.90;;;;;;5114597;27;20438;-75
2022/09/29 06:13:39;;;;;;;10.10;7.20;;;6.00;99.90;;;;;;5111368;27;20412;-74
2022/09/29 06:16:05;;;;;;;10.82;7.90;;;6.00;99.90;;;;;;5114986;27;20477;-74
2022/09/29 06:18:31;;;;;;;9.88;7.68;;;6.10;99.90;;;;;;5118685;27;20395;-75
2022/09/29 06:21:02;;;;;;;11.85;8.43;;;6.10;99.90;;;;;;5109346;28;20416;-74
2022/09/29 06:23:27;;;;;;;11.97;8.30;;;6.10;99.90;;;;;;5114442;27;20412;-74
2022/09/29 06:25:57;;;;;;;10.60;8.38;;;6.10;99.90;;;;;;5123385;27;20421;-75
2022/09/29 06:28:23;;;;;;;10.93;8.20;;;6.20;99.90;;;;;;5118842;27;20419;-74
2022/09/29 06:30:49;;;;;;;13.90;8.95;;;6.20;99.90;;;;;;5109929;28;20388;-74
2022/09/29 06:33:15;;;;;;;13.20;9.53;;;6.30;99.90;;;;;;5109717;27;20424;-74
2022/09/29 06:38:32;;;;;;;11.75;8.85;;;6.30;99.90;;;;;;5130769;27;20443;-74
2022/09/29 06:40:58;;;;;;;12.60;9.15;;;6.40;99.90;;;;;;5130045;27;20429;-74
2022/09/29 06:43:24;;;;;;;13.55;9.43;;;6.40;99.90;;;;;;5130470;27;20402;-74
2022/09/29 06:45:50;;;;;;;11.70;9.40;;;6.40;99.90;;;;;;5129670;27;20411;-73
2022/09/29 06:48:15;;;;;;;12.43;9.30;;;6.50;99.90;;;;;;5130170;27;20831;-73
2022/09/29 06:50:41;;;;;;;12.03;9.30;;;6.50;99.90;;;;;;5129551;27;20398;-72
2022/09/29 06:53:07;;;;;;;12.23;9.32;;;6.50;99.90;;;;;;5125537;27;20407;-74
2022/09/29 06:55:32;;;;;;;13.60;9.90;;;6.60;99.90;;;;;;5120885;27;20809;-73
2022/09/29 06:57:58;;;;;;;12.57;9.60;;;6.60;99.90;;;;;;5129702;27;20550;-74
2022/09/29 07:00:24;;;;;;;13.27;10.05;;;6.60;99.90;;;;;;5128805;27;20761;-73
2022/09/29 07:02:50;;;;;;;14.63;11.23;;;6.70;99.90;;;;;;5129492;27;20447;-73
2022/09/29 07:05:15;;;;;;;15.87;10.77;;;6.70;99.90;;;;;;5128857;27;20547;-73
2022/09/29 07:07:41;;;;;;;17.55;11.90;;;6.80;99.90;;;;;;5128602;27;20463;-73
2022/09/29 07:10:08;;;;;;;16.03;11.90;;;6.80;99.90;;;;;;5111890;27;20928;-73
2022/09/29 07:12:34;;;;;;;16.17;12.10;;;6.80;99.90;;;;;;5129188;27;20447;-73
2022/09/29 07:14:59;;;;;;;17.92;12.50;;;6.90;99.90;;;;;;5129445;27;20403;-73
2022/09/29 07:17:25;;;;;;;18.30;12.30;;;7.00;99.90;;;;;;5110366;27;20415;-73
2022/09/29 07:19:53;;;;;;;16.60;11.80;;;7.00;99.90;;;;;;5109824;28;20388;-73
2022/09/29 07:22:19;;;;;;;17.70;12.10;;;7.00;99.90;;;;;;5110848;27;20514;-73
2022/09/29 07:24:46;;;;;;;14.90;11.25;;;7.10;99.90;;;;;;5110150;27;20404;-73
2022/09/29 07:27:12;;;;;;;16.40;12.05;;;7.10;99.90;;;;;;5091884;28;20922;-73
2022/09/29 07:29:38;;;;;;;17.20;11.52;;;7.10;99.90;;;;;;5109433;27;20394;-73
2022/09/29 07:32:03;;;;;;;16.33;11.57;;;7.20;99.90;;;;;;5109142;27;20397;-73
2022/09/29 07:34:29;;;;;;;15.48;11.50;;;7.20;99.90;;;;;;5109282;28;20965;-73
2022/09/29 07:36:54;;;;;;;15.97;11.97;;;7.10;99.90;;;;;;5109146;27;20431;-73
2022/09/29 07:39:21;;;;;;;18.23;12.90;;;7.20;99.90;;;;;;5109280;28;21017;-73
2022/09/29 07:41:47;;;;;;;19.98;13.65;;;7.30;99.90;;;;;;5109213;27;20399;-73
2022/09/29 07:44:13;;;;;;;19.77;14.43;;;7.40;99.90;;;;;;5109628;27;20400;-73
2022/09/29 07:46:38;;;;;;;22.23;15.00;;;7.40;99.90;;;;;;5110228;27;20420;-73
2022/09/29 07:49:04;;;;;;;22.60;15.70;;;7.60;99.90;;;;;;5109638;27;20445;-73
2022/09/29 07:51:31;;;;;;;23.52;15.95;;;7.70;99.90;;;;;;5108658;28;21154;-73
2022/09/29 07:54:03;;;;;;;23.20;15.83;;;7.80;99.90;;;;;;5109409;27;20412;-73
2022/09/29 07:56:29;;;;;;;23.05;16.10;;;7.90;99.90;;;;;;5110613;27;20428;-73
2022/09/29 07:58:55;;;;;;;25.30;16.80;;;8.10;99.90;;;;;;5109569;27;20428;-73
2022/09/29 08:01:21;;;;;;;25.50;16.90;;;8.20;99.90;;;;;;5111037;27;20415;-73
2022/09/29 08:03:53;;;;;;;28.05;18.00;;;8.30;99.90;;;;;;5109526;27;20904;-73
2022/09/29 08:06:19;;;;;;;28.15;18.27;;;8.40;99.90;;;;;;5109318;27;20535;-73
2022/09/29 08:08:45;;;;;;;29.48;19.13;;;8.60;99.90;;;;;;5110089;27;20458;-73
2022/09/29 08:11:13;;;;;;;31.00;19.60;;;8.70;99.90;;;;;;5108977;27;20400;-73
2022/09/29 08:13:40;;;;;;;30.35;19.58;;;8.90;99.90;;;;;;5109915;27;20401;-73
2022/09/29 08:16:10;;;;;;;29.58;19.38;;;9.10;99.90;;;;;;5110864;27;20822;-73
2022/09/29 08:18:36;;;;;;;30.02;19.58;;;9.20;99.90;;;;;;5109894;27;20407;-73
2022/09/29 08:21:03;;;;;;;31.98;19.05;;;9.30;99.90;;;;;;5109809;27;20400;-73
2022/09/29 08:23:30;;;;;;;29.08;18.42;;;9.50;99.90;;;;;;5108993;27;20769;-73
2022/09/29 08:26:07;;;;;;;31.65;18.13;;;9.60;99.90;;;;;;5109833;27;20469;-74
2022/09/29 08:28:35;;;;;;;33.97;19.00;;;9.70;99.90;;;;;;5109175;27;20408;-73
2022/09/29 08:31:06;;;;;;;35.47;18.73;;;9.80;99.90;;;;;;5116909;27;20477;-73
2022/09/29 08:33:32;;;;;;;38.23;19.27;;;10.00;99.90;;;;;;5127634;27;20474;-73
2022/09/29 08:35:58;;;;;;;41.80;21.15;;;10.10;99.90;;;;;;5128569;27;20390;-73
2022/09/29 08:38:25;;;;;;;46.28;22.63;;;10.20;99.90;;;;;;5127755;27;20432;-73
2022/09/29 08:40:53;;;;;;;41.65;22.42;;;10.20;99.90;;;;;;5128218;27;20437;-73
2022/09/29 08:43:38;;;;;;;42.50;21.23;;;10.30;99.90;;;;;;5126173;27;20408;-73
2022/09/29 08:46:24;;;;;;;42.37;21.60;;;10.40;99.90;;;;;;5125947;27;20422;-73
2022/09/29 08:48:51;;;;;;;36.85;21.25;;;10.40;99.90;;;;;;5103887;28;20407;-73
2022/09/29 08:51:30;;;;;;;35.20;20.67;;;10.50;99.90;;;;;;5125969;27;20426;-73
2022/09/29 08:54:01;;;;;;;35.47;21.63;;;10.70;99.90;;;;;;5126168;27;20794;-73
2022/09/29 08:56:27;;;;;;;31.80;19.75;;;10.80;99.90;;;;;;5124734;28;20837;-73
2022/09/29 08:58:53;;;;;;;28.35;19.38;;;10.90;99.90;;;;;;5125648;28;20972;-73
2022/09/29 09:01:38;;;;;;;27.53;19.73;;;11.10;99.90;;;;;;5125206;27;20390;-73
2022/09/29 09:04:25;;;;;;;26.90;18.77;;;11.20;99.90;;;;;;5125236;27;20948;-73
2022/09/29 09:07:10;;;;;;;22.20;16.13;;;11.50;99.90;;;;;;5107977;28;20430;-73
2022/09/29 09:09:41;;;;;;;17.80;14.70;;;12.30;99.90;;;;;;5125236;27;20741;-73
2022/09/29 09:12:37;;;;;;;17.13;13.18;;;13.40;99.90;;;;;;5125681;27;20448;-73
2022/09/29 09:15:30;;;;;;;16.27;11.88;;;14.40;99.90;;;;;;5108765;27;20403;-75
2022/09/29 09:18:05;;;;;;;12.03;9.53;;;15.40;99.90;;;;;;5103296;27;20491;-73
2022/09/29 09:20:51;;;;;;;10.77;8.25;;;16.20;99.90;;;;;;5123283;27;20401;-74
2022/09/29 09:23:23;;;;;;;12.65;9.13;;;16.80;99.90;;;;;;5125797;27;20420;-73
2022/09/29 09:26:02;;;;;;;10.97;8.43;;;17.50;99.90;;;;;;5121601;28;20426;-74
2022/09/29 09:28:37;;;;;;;10.95;8.40;;;17.70;99.90;;;;;;5112222;27;20420;-73
2022/09/29 09:31:29;;;;;;;9.90;8.07;;;17.90;99.90;;;;;;5117710;27;20415;-74
2022/09/29 09:33:57;;;;;;;8.97;7.67;;;18.00;99.90;;;;;;5107285;28;20408;-74
2022/09/29 09:36:38;;;;;;;9.85;7.70;;;18.20;99.90;;;;;;5110335;28;20778;-73
2022/09/29 09:39:05;;;;;;;11.35;7.53;;;18.70;99.90;;;;;;5099055;28;20423;-74
2022/09/29 09:41:34;;;;;;;9.70;7.60;;;19.10;99.90;;;;;;5125047;27;20398;-74
2022/09/29 09:44:14;;;;;;;9.05;7.43;;;19.40;99.90;;;;;;5131775;27;20442;-74
2022/09/29 09:47:10;;;;;;;9.60;7.50;;;19.80;99.90;;;;;;5131221;27;20437;-73
2022/09/29 09:49:42;;;;;;;10.00;7.35;;;20.10;99.90;;;;;;5131174;27;20869;-75
2022/09/29 09:52:16;;;;;;;9.43;7.00;;;20.30;99.90;;;;;;5122339;27;20796;-74
2022/09/29 09:54:46;;;;;;;9.77;7.30;;;20.70;99.90;;;;;;5124446;27;20408;-74
2022/09/29 09:57:30;;;;;;;8.18;6.40;;;21.00;99.90;;;;;;5122091;27;20443;-73
2022/09/29 10:00:07;;;;;;;8.43;6.68;;;21.30;99.90;;;;;;5129911;27;20398;-73
2022/09/29 10:02:33;;;;;;;9.32;6.40;;;21.70;99.90;;;;;;5130084;27;20411;-74
2022/09/29 10:04:59;;;;;;;8.97;7.20;;;21.80;99.90;;;;;;5139086;27;20495;-75
2022/09/29 10:07:28;;;;;;;8.52;6.30;;;21.50;99.90;;;;;;5138902;27;20467;-72
2022/09/29 10:09:55;;;;;;;8.98;6.30;;;21.20;99.90;;;;;;5139528;27;20857;-71
2022/09/29 10:12:23;;;;;;;8.98;6.43;;;21.10;99.90;;;;;;5138240;27;20399;-73
2022/09/29 10:14:53;;;;;;;9.98;6.13;;;21.50;99.90;;;;;;5137847;27;20407;-74
2022/09/29 10:17:23;;;;;;;9.25;5.40;;;21.60;99.90;;;;;;5136841;27;20412;-74
2022/09/29 10:19:53;;;;;;;9.68;5.65;;;21.80;99.10;;;;;;5137575;27;20403;-74
2022/09/29 10:22:19;;;;;;;8.43;4.90;;;21.40;97.30;;;;;;5135150;27;20458;-73
2022/09/29 10:24:45;;;;;;;8.68;4.63;;;20.80;98.40;;;;;;5128990;27;20409;-74
2022/09/29 10:27:18;;;;;;;5.13;3.30;;;21.10;98.90;;;;;;5126405;27;20424;-74
2022/09/29 10:29:51;;;;;;;4.03;2.38;;;21.20;97.40;;;;;;5121051;27;20482;-73
2022/09/29 10:32:36;;;;;;;3.28;1.70;;;20.70;97.30;;;;;;5125368;27;20403;-73
2022/09/29 10:35:18;;;;;;;4.13;1.95;;;19.90;96.90;;;;;;5130966;27;20442;-74
2022/09/29 10:38:11;;;;;;;4.13;1.97;;;19.10;97.20;;;;;;5121451;27;20460;-73
2022/09/29 10:40:53;;;;;;;5.07;2.40;;;18.40;98.30;;;;;;5128912;27;20415;-73
2022/09/29 10:43:55;;;;;;;3.42;2.45;;;18.30;99.90;;;;;;5118562;28;20392;-73
2022/09/29 10:46:37;;;;;;;3.50;2.38;;;18.60;99.30;;;;;;5092401;28;20433;-74
2022/09/29 10:49:24;;;;;;;3.65;2.70;;;18.30;99.50;;;;;;5125939;27;20403;-73
2022/09/29 10:51:52;;;;;;;3.97;2.30;;;18.70;99.80;;;;;;5113183;27;20392;-73
2022/09/29 10:54:18;;;;;;;4.00;2.10;;;18.80;99.40;;;;;;5111416;27;20414;-73
2022/09/29 10:56:48;;;;;;;4.03;2.43;;;18.40;99.10;;;;;;5110293;27;20404;-74
2022/09/29 10:59:15;;;;;;;4.05;2.05;;;18.20;99.50;;;;;;5110836;27;20673;-74
2022/09/29 11:01:58;;;;;;;3.05;1.88;;;17.80;99.10;;;;;;5111163;27;20479;-73
2022/09/29 11:04:30;;;;;;;3.28;1.73;;;17.50;99.70;;;;;;5111598;27;20409;-74
2022/09/29 11:07:05;;;;;;;2.92;1.63;;;17.30;99.30;;;;;;5130123;27;20936;-73
2022/09/29 11:09:39;;;;;;;3.75;1.58;;;17.70;99.90;;;;;;5125621;27;20406;-73
2022/09/29 11:12:21;;;;;;;3.00;1.70;;;18.60;99.60;;;;;;5121755;27;20884;-74
2022/09/29 11:14:47;;;;;;;3.83;2.00;;;18.60;98.40;;;;;;5102987;27;20465;-73
2022/09/29 11:17:25;;;;;;;4.53;1.83;;;18.20;98.40;;;;;;5116244;27;20491;-73
2022/09/29 11:19:52;;;;;;;3.00;1.50;;;17.80;98.40;;;;;;5118353;27;20441;-73
2022/09/29 11:22:18;;;;;;;2.58;1.30;;;17.40;99.10;;;;;;5127015;27;20975;-73
2022/09/29 11:25:18;;;;;;;2.38;1.13;;;17.10;99.70;;;;;;5109496;27;20409;-73
2022/09/29 11:27:57;;;;;;;2.28;1.00;;;16.80;99.90;;;;;;5107745;28;20435;-73
2022/09/29 11:30:35;;;;;;;3.08;0.70;;;16.70;99.60;;;;;;5107702;27;20489;-73
2022/09/29 11:33:36;;;;;;;2.40;0.70;;;16.40;99.70;;;;;;5118524;27;20411;-73
2022/09/29 11:36:23;;;;;;;1.70;0.57;;;16.30;99.80;;;;;;5096218;27;20412;-73
2022/09/29 11:39:22;;;;;;;2.33;1.00;;;16.10;99.60;;;;;;5112387;27;20411;-73
2022/09/29 11:42:09;;;;;;;2.38;0.70;;;16.10;99.80;;;;;;5104479;27;20417;-73
2022/09/29 11:44:58;;;;;;;1.63;0.85;;;16.90;99.90;;;;;;5120451;27;20459;-73
2022/09/29 11:48:17;;;;;;;2.22;0.88;;;17.30;99.70;;;;;;5096816;28;20439;-74
2022/09/29 11:50:55;;;;;;;1.65;0.80;;;17.10;99.10;;;;;;5086283;28;20437;-73
2022/09/29 11:53:57;;;;;;;3.17;1.88;;;16.80;99.40;;;;;;5121402;27;20403;-73
2022/09/29 11:56:44;;;;;;;1.30;0.60;;;16.60;99.70;;;;;;5129103;27;20394;-73
2022/09/29 11:59:31;;;;;;;1.63;0.60;;;17.70;99.90;;;;;;5110846;27;20415;-73
2022/09/29 12:02:34;;;;;;;1.92;0.55;;;19.20;99.80;;;;;;5102735;27;20472;-73
2022/09/29 12:05:27;;;;;;;1.77;0.60;;;19.80;96.70;;;;;;5114838;27;20406;-73
2022/09/29 12:08:27;;;;;;;1.10;0.60;;;19.00;95.90;;;;;;5124347;27;20968;-73
2022/09/29 12:11:19;;;;;;;3.22;0.60;;;18.40;95.70;;;;;;5108725;28;20451;-73
2022/09/29 12:13:59;;;;;;;1.15;0.50;;;17.90;96.80;;;;;;5107611;28;20892;-73
2022/09/29 12:16:31;;;;;;;0.88;0.40;;;17.60;97.40;;;;;;5127897;27;20490;-73
2022/09/29 12:19:14;;;;;;;1.58;0.50;;;17.40;97.80;;;;;;5127889;27;20406;-73
2022/09/29 12:21:51;;;;;;;2.03;0.50;;;17.30;97.80;;;;;;5126981;27;20448;-73
2022/09/29 12:24:32;;;;;;;1.70;0.52;;;17.10;98.70;;;;;;5114301;27;20399;-73
2022/09/29 12:27:04;;;;;;;1.67;0.70;;;17.30;98.40;;;;;;5127156;27;21439;-74
2022/09/29 12:29:45;;;;;;;2.40;0.63;;;17.90;98.00;;;;;;5119560;27;20442;-73
2022/09/29 12:32:22;;;;;;;1.20;0.32;;;18.60;97.50;;;;;;5121726;27;20413;-73
2022/09/29 12:34:54;;;;;;;1.60;0.20;;;18.60;96.70;;;;;;5119542;27;20497;-73
2022/09/29 12:37:33;;;;;;;2.00;0.23;;;18.80;96.60;;;;;;5128209;27;20414;-73
2022/09/29 12:40:09;;;;;;;1.20;0.30;;;19.10;95.60;;;;;;5128083;27;20402;-73
2022/09/29 12:43:02;;;;;;;0.65;0.10;;;18.70;95.50;;;;;;5095719;28;20928;-73
2022/09/29 12:45:55;;;;;;;2.70;0.10;;;18.20;95.70;;;;;;5108601;27;20479;-74
2022/09/29 12:48:46;;;;;;;1.50;0.30;;;17.80;95.40;;;;;;5108029;28;20513;-73
2022/09/29 12:51:33;;;;;;;0.90;0.10;;;17.40;95.70;;;;;;5108279;28;20809;-73
2022/09/29 12:54:14;;;;;;;1.00;0.05;;;17.20;96.30;;;;;;5105182;28;20445;-73
2022/09/29 12:56:57;;;;;;;0.27;0.00;;;17.10;96.20;;;;;;5127730;27;20413;-73
2022/09/29 12:59:55;;;;;;;0.43;0.00;;;17.00;96.60;;;;;;5128071;27;20481;-73
2022/09/29 13:02:44;;;;;;;0.60;0.00;;;17.60;96.20;;;;;;5110002;28;20410;-73
2022/09/29 13:05:44;;;;;;;1.10;0.00;;;17.80;94.90;;;;;;5126688;28;20912;-73
2022/09/29 13:08:24;;;;;;;0.70;0.10;;;17.90;95.20;;;;;;5127298;27;20409;-73
2022/09/29 13:11:07;;;;;;;0.50;0.03;;;17.80;94.90;;;;;;5129717;27;20406;-73
2022/09/29 13:13:52;;;;;;;0.75;0.15;;;17.60;95.00;;;;;;5132309;27;20426;-73
2022/09/29 13:16:27;;;;;;;0.70;0.10;;;17.50;95.30;;;;;;5131335;27;20399;-73
2022/09/29 13:19:34;;;;;;;1.33;0.45;;;17.50;95.60;;;;;;5131429;27;20438;-73